Aberdeen Dyce Airport

Airport
ICAO code: 
EGPD
IATA Code: 
ABZ
Summary
ICAO Region: 
EUR
Territory: 
Location: 
Dyce, Scotland
Serving: 
Aberdeen
Elevation: 
215 ft
Coordinates: 
Aerial View: 
57° 12' 1.35" N, 2° 12' 13.442" W
Metar
Observation
EGPD 190050Z AUTO 22013KT 9999 NCD 09/05 Q1015
Station
Aberdeen / Dyce
Date/Time
2022-01-19 00:50:00
Wind direction
220°
Wind speed
13 kts
Lowest cloud amount
no clouds detected
Temperature
9°C
Dew point
5°C
Humidity
76%
QNH
1015 hPa
Weather condition
n/a

Description

Domestic and international airport serving the City of Aberdeen and eastern Scotland and an important base for helicopters serving the offshore oil and gas industry.

Climatology

Temperate Marine climate/Oceanic climate (Köppen climate classification Cfb). Moderately cool summer and comparatively warm winter with a temperature range of only 14°C. Prevailing south-westerly winds from the Atlantic Ocean.

Runways

Designator Length Width Surface Rops
18/36 260 23 ASP Yes/Yes
5/23 577 46 CON Yes/Yes
14/32 660 23 ASP Yes/Yes
16/34 1829 46 ASP Yes/Yes
Airport map: 
Aerial View: 

Accidents and Serious Incidents at or in the vicinity of EGPD

SKYbrary Partners:

Safety knowledge contributed by: